createdAt,value
2023-03-19T00:02:46.106Z,10.98
2023-03-19T00:05:30.938Z,10.95
2023-03-19T00:08:15.731Z,10.97
2023-03-19T00:11:11.431Z,10.89
2023-03-19T00:13:56.794Z,10.90
2023-03-19T00:16:42.052Z,10.87
2023-03-19T00:19:27.849Z,10.75
2023-03-19T00:22:13.456Z,10.81
2023-03-19T00:24:58.599Z,10.87
2023-03-19T00:27:44.386Z,10.88
2023-03-19T00:30:29.576Z,10.84
2023-03-19T00:33:14.312Z,10.80
2023-03-19T00:35:59.868Z,10.74
2023-03-19T00:38:46.134Z,10.71
2023-03-19T00:41:35.482Z,10.70
2023-03-19T00:44:21.733Z,10.59
2023-03-19T00:47:11.760Z,10.57
2023-03-19T00:49:56.800Z,10.52
2023-03-19T00:52:41.600Z,10.48
2023-03-19T00:55:29.438Z,10.40
2023-03-19T00:58:14.422Z,10.36
2023-03-19T01:01:01.916Z,10.24
2023-03-19T01:03:47.299Z,10.10
2023-03-19T01:06:32.102Z,9.98
2023-03-19T01:09:17.414Z,9.92
2023-03-19T01:12:04.664Z,9.87
2023-03-19T01:14:49.574Z,9.79
2023-03-19T01:17:34.886Z,9.75
2023-03-19T01:20:20.382Z,9.74
2023-03-19T01:23:06.532Z,9.81
2023-03-19T01:25:53.331Z,9.75
2023-03-19T01:28:39.800Z,9.67
2023-03-19T01:31:25.136Z,9.53
2023-03-19T01:34:09.964Z,9.30
2023-03-19T01:36:55.155Z,9.27
2023-03-19T01:39:40.362Z,9.25
2023-03-19T01:42:25.650Z,9.25
2023-03-19T01:45:37.219Z,9.19
2023-03-19T01:48:44.610Z,9.25
2023-03-19T01:51:34.502Z,8.97
2023-03-19T01:54:22.740Z,9.02
2023-03-19T01:57:13.531Z,9.19
2023-03-19T02:00:01.616Z,8.99
2023-03-19T02:02:53.132Z,9.21
2023-03-19T02:08:41.524Z,9.46
2023-03-19T02:11:26.718Z,9.21
2023-03-19T02:14:14.580Z,9.20
2023-03-19T02:17:00.107Z,9.53
2023-03-19T02:19:57.908Z,9.51
2023-03-19T02:22:58.565Z,9.64
2023-03-19T02:25:46.785Z,9.98
2023-03-19T02:28:33.423Z,10.22
2023-03-19T02:31:22.354Z,10.27
2023-03-19T02:34:28.484Z,10.34
2023-03-19T02:37:27.451Z,10.27
2023-03-19T02:40:27.478Z,10.34
2023-03-19T02:43:12.657Z,10.30
2023-03-19T02:45:58.587Z,10.29
2023-03-19T02:48:46.419Z,10.25
2023-03-19T02:51:33.713Z,10.16
2023-03-19T02:54:21.704Z,10.14
2023-03-19T02:57:07.108Z,10.11
2023-03-19T02:59:54.336Z,9.98
2023-03-19T03:02:39.715Z,9.93
2023-03-19T03:05:25.543Z,9.99
2023-03-19T03:08:13.252Z,9.96
2023-03-19T03:10:58.260Z,9.81
2023-03-19T03:13:51.015Z,9.84
2023-03-19T03:16:37.787Z,9.88
2023-03-19T03:19:23.342Z,9.85
2023-03-19T03:22:11.154Z,9.88
2023-03-19T03:24:56.097Z,9.87
2023-03-19T03:27:41.360Z,9.83
2023-03-19T03:30:26.915Z,9.77
2023-03-19T03:33:12.831Z,9.63
2023-03-19T03:35:57.902Z,9.62
2023-03-19T03:38:42.875Z,9.48
2023-03-19T03:41:29.295Z,9.56
2023-03-19T03:44:18.481Z,9.44
2023-03-19T03:47:06.073Z,9.39
2023-03-19T03:49:54.171Z,9.45
2023-03-19T03:52:39.643Z,9.38
2023-03-19T03:55:24.570Z,9.25
2023-03-19T03:58:09.933Z,9.27
2023-03-19T04:00:55.629Z,9.18
2023-03-19T04:03:41.400Z,9.10
2023-03-19T04:06:27.362Z,9.07
2023-03-19T04:09:14.633Z,9.06
2023-03-19T04:12:00.396Z,9.10
2023-03-19T04:14:45.496Z,9.17
2023-03-19T04:17:30.682Z,9.19
2023-03-19T04:20:18.359Z,8.94
2023-03-19T04:23:09.078Z,8.80
2023-03-19T04:25:59.190Z,8.95
2023-03-19T04:28:46.979Z,9.05
2023-03-19T04:31:34.511Z,9.21
2023-03-19T04:34:19.615Z,9.23
2023-03-19T04:37:04.656Z,9.28
2023-03-19T04:39:49.542Z,9.35
2023-03-19T04:42:34.512Z,9.37
2023-03-19T04:45:21.589Z,9.30
2023-03-19T04:48:07.334Z,8.92
2023-03-19T04:50:53.454Z,9.10
2023-03-19T04:53:39.834Z,9.03
2023-03-19T04:56:25.698Z,8.96
2023-03-19T04:59:10.878Z,9.06
2023-03-19T05:01:55.892Z,9.13
2023-03-19T05:04:41.006Z,9.06
2023-03-19T05:07:26.341Z,9.11
2023-03-19T05:10:12.270Z,9.14
2023-03-19T05:12:59.463Z,9.14
2023-03-19T05:15:48.261Z,9.15
2023-03-19T05:18:33.552Z,8.96
2023-03-19T05:21:18.475Z,9.03
2023-03-19T05:24:11.144Z,9.05
2023-03-19T05:26:56.152Z,9.01
2023-03-19T05:29:42.440Z,9.05
2023-03-19T05:32:28.213Z,8.88
2023-03-19T05:35:14.276Z,8.92
2023-03-19T05:38:02.087Z,8.92
2023-03-19T05:40:46.930Z,8.85
2023-03-19T05:43:33.885Z,8.56
2023-03-19T05:46:19.088Z,8.72
2023-03-19T05:49:04.912Z,8.66
2023-03-19T05:51:50.054Z,8.72
2023-03-19T05:54:35.817Z,8.71
2023-03-19T05:57:21.183Z,8.81
2023-03-19T06:00:07.849Z,8.78
2023-03-19T06:02:55.832Z,8.83
2023-03-19T06:05:40.971Z,8.88
2023-03-19T06:08:27.160Z,8.89
2023-03-19T06:11:12.100Z,8.94
2023-03-19T06:13:57.716Z,8.97
2023-03-19T06:16:42.681Z,8.98
2023-03-19T06:19:27.703Z,9.05
2023-03-19T06:22:12.845Z,8.83
2023-03-19T06:24:57.737Z,8.98
2023-03-19T06:27:49.242Z,9.08
2023-03-19T06:30:35.380Z,8.89
2023-03-19T06:33:20.573Z,8.97
2023-03-19T06:36:06.546Z,9.12
2023-03-19T06:38:51.702Z,8.83
2023-03-19T06:41:37.230Z,8.95
2023-03-19T06:44:22.147Z,9.13
2023-03-19T06:47:10.180Z,9.21
2023-03-19T06:49:56.371Z,9.33
2023-03-19T06:52:43.914Z,9.36
2023-03-19T06:55:31.393Z,9.46
2023-03-19T06:58:16.462Z,9.55
2023-03-19T07:01:02.045Z,9.57
2023-03-19T07:03:50.496Z,9.64
2023-03-19T07:06:35.427Z,9.71
2023-03-19T07:09:20.522Z,9.87
2023-03-19T07:12:16.667Z,9.86
2023-03-19T07:15:01.825Z,10.05
2023-03-19T07:17:49.917Z,10.17
2023-03-19T07:20:35.163Z,10.10
2023-03-19T07:23:20.342Z,10.26
2023-03-19T07:26:05.634Z,10.39
2023-03-19T07:28:50.839Z,10.34
2023-03-19T07:31:38.407Z,10.34
2023-03-19T07:34:23.519Z,10.34
2023-03-19T07:37:11.126Z,10.41
2023-03-19T07:40:03.789Z,10.48
2023-03-19T07:42:48.916Z,10.50
2023-03-19T07:45:33.974Z,10.55
2023-03-19T07:48:19.046Z,10.64
2023-03-19T07:51:04.520Z,10.67
2023-03-19T07:53:49.409Z,10.75
2023-03-19T07:56:39.000Z,10.85
2023-03-19T07:59:26.280Z,10.92
2023-03-19T08:02:13.582Z,11.24
2023-03-19T08:05:03.118Z,11.49
2023-03-19T08:07:50.338Z,11.79
2023-03-19T08:10:37.793Z,11.85
2023-03-19T08:13:23.147Z,11.85
2023-03-19T08:16:11.564Z,12.13
2023-03-19T08:18:57.174Z,12.15
2023-03-19T08:21:45.189Z,12.19
2023-03-19T08:24:30.153Z,12.21
2023-03-19T08:27:15.823Z,12.08
2023-03-19T08:30:01.151Z,12.29
2023-03-19T08:32:46.527Z,12.47
2023-03-19T08:35:31.455Z,12.48
2023-03-19T08:38:24.230Z,12.37
2023-03-19T08:41:09.935Z,12.71
2023-03-19T08:43:58.180Z,12.71
2023-03-19T08:46:43.450Z,12.68
2023-03-19T08:49:28.569Z,12.61
2023-03-19T08:52:13.515Z,12.75
2023-03-19T08:54:58.690Z,12.77
2023-03-19T08:57:43.594Z,13.21
2023-03-19T09:00:28.906Z,13.75
2023-03-19T09:03:18.884Z,13.50
2023-03-19T09:06:06.412Z,13.39
2023-03-19T09:08:51.345Z,13.33
2023-03-19T09:11:36.518Z,13.46
2023-03-19T09:14:22.873Z,12.97
2023-03-19T09:17:08.103Z,13.05
2023-03-19T09:19:53.157Z,13.20
2023-03-19T09:22:38.380Z,13.13
2023-03-19T09:25:23.525Z,12.95
2023-03-19T09:28:08.531Z,12.92
2023-03-19T09:30:55.869Z,12.83
2023-03-19T09:33:40.851Z,12.82
2023-03-19T09:36:26.489Z,13.01
2023-03-19T09:39:11.753Z,12.88
2023-03-19T09:42:11.924Z,12.76
2023-03-19T09:44:56.991Z,12.76
2023-03-19T09:47:44.949Z,12.54
2023-03-19T09:50:34.606Z,12.79
2023-03-19T09:53:40.189Z,12.68
2023-03-19T09:56:26.349Z,12.74
2023-03-19T09:59:11.398Z,12.75
2023-03-19T10:02:22.372Z,12.82
2023-03-19T10:05:19.385Z,12.99
2023-03-19T10:08:13.438Z,12.97
2023-03-19T10:11:17.217Z,12.99
2023-03-19T10:14:29.096Z,13.00
2023-03-19T10:17:22.012Z,13.08
2023-03-19T10:20:22.027Z,13.15
2023-03-19T10:23:29.224Z,13.51
2023-03-19T10:26:17.297Z,13.51
2023-03-19T10:29:17.504Z,13.21
2023-03-19T10:32:05.810Z,13.41
2023-03-19T10:34:53.838Z,13.17
2023-03-19T10:37:39.906Z,13.33
2023-03-19T10:40:34.358Z,13.33
2023-03-19T10:43:24.627Z,13.41
2023-03-19T10:46:19.709Z,13.64
2023-03-19T10:49:04.920Z,13.52
2023-03-19T10:51:51.305Z,13.71
2023-03-19T10:54:42.468Z,13.35
2023-03-19T10:57:31.235Z,13.51
2023-03-19T11:00:18.248Z,13.35
2023-03-19T11:03:26.557Z,13.27
2023-03-19T11:06:35.947Z,13.43
2023-03-19T11:09:31.338Z,13.57
2023-03-19T11:12:23.009Z,13.64
2023-03-19T11:15:21.975Z,13.21
2023-03-19T11:18:20.848Z,13.25
2023-03-19T11:21:30.543Z,13.43
2023-03-19T11:24:21.888Z,13.50
2023-03-19T11:27:09.198Z,13.27
2023-03-19T11:29:54.674Z,14.28
2023-03-19T11:32:58.713Z,16.64
2023-03-19T11:36:12.956Z,16.15
2023-03-19T11:39:05.620Z,15.11
2023-03-19T11:42:29.221Z,16.22
2023-03-19T11:45:26.790Z,15.62
2023-03-19T11:48:28.712Z,16.06
2023-03-19T11:51:30.599Z,14.42
2023-03-19T11:54:37.674Z,18.01
2023-03-19T11:57:51.286Z,15.05
2023-03-19T12:00:56.240Z,14.38
2023-03-19T12:04:22.778Z,14.42
2023-03-19T12:07:23.174Z,13.94
2023-03-19T12:10:33.548Z,14.46
2023-03-19T12:13:58.391Z,14.22
2023-03-19T12:17:21.330Z,14.62
2023-03-19T12:20:43.731Z,15.30
2023-03-19T12:23:50.470Z,13.93
2023-03-19T12:26:55.795Z,15.19
2023-03-19T12:29:58.004Z,14.52
2023-03-19T12:33:09.469Z,15.06
2023-03-19T12:35:57.265Z,14.85
2023-03-19T12:38:48.264Z,14.97
2023-03-19T12:41:39.446Z,15.13
2023-03-19T12:44:31.233Z,14.26
2023-03-19T12:47:26.555Z,14.56
2023-03-19T12:50:19.218Z,14.26
2023-03-19T12:53:11.367Z,14.46
2023-03-19T12:56:00.340Z,14.70
2023-03-19T12:59:09.771Z,14.51
2023-03-19T13:02:04.460Z,14.11
2023-03-19T13:04:58.307Z,14.69
2023-03-19T13:07:52.476Z,14.87
2023-03-19T13:10:40.067Z,14.40
2023-03-19T13:13:30.983Z,14.14
2023-03-19T13:16:38.966Z,15.06
2023-03-19T13:19:51.011Z,15.32
2023-03-19T13:22:38.353Z,14.61
2023-03-19T13:25:46.552Z,14.09
2023-03-19T13:28:37.360Z,14.44
2023-03-19T13:31:29.747Z,14.64
2023-03-19T13:34:17.710Z,14.86
2023-03-19T13:37:19.767Z,14.44
2023-03-19T13:40:25.309Z,14.70
2023-03-19T13:43:41.621Z,14.30
2023-03-19T13:46:43.827Z,13.72
2023-03-19T13:49:36.203Z,13.76
2023-03-19T13:52:20.978Z,13.58
2023-03-19T13:55:24.726Z,13.49
2023-03-19T13:58:12.594Z,13.69
2023-03-19T14:00:59.029Z,13.38
2023-03-19T14:04:03.282Z,13.33
2023-03-19T14:06:52.680Z,13.54
2023-03-19T14:09:37.868Z,13.44
2023-03-19T14:12:34.317Z,13.66
2023-03-19T14:15:24.054Z,14.01
2023-03-19T14:21:46.876Z,14.71
2023-03-19T14:27:47.364Z,14.37
2023-03-19T14:30:38.852Z,13.93
2023-03-19T14:33:37.443Z,13.63
2023-03-19T14:36:22.948Z,13.93
2023-03-19T14:39:31.156Z,13.73
2023-03-19T14:42:25.517Z,14.03
2023-03-19T14:45:37.772Z,13.81
2023-03-19T14:48:25.995Z,13.76
2023-03-19T14:51:26.464Z,13.63
2023-03-19T14:54:25.896Z,13.43
2023-03-19T14:57:26.051Z,13.33
2023-03-19T15:00:18.096Z,13.28
2023-03-19T15:03:04.931Z,13.24
2023-03-19T15:05:56.116Z,13.21
2023-03-19T15:08:42.128Z,13.33
2023-03-19T15:11:51.032Z,13.18
2023-03-19T15:14:49.328Z,13.10
2023-03-19T15:17:36.291Z,13.12
2023-03-19T15:20:23.522Z,13.24
2023-03-19T15:23:25.770Z,13.26
2023-03-19T15:26:12.167Z,13.24
2023-03-19T15:28:57.938Z,13.46
2023-03-19T15:31:53.999Z,13.61
2023-03-19T15:34:46.889Z,13.99
2023-03-19T15:37:38.825Z,14.19
2023-03-19T15:40:27.332Z,14.22
2023-03-19T15:43:13.513Z,14.53
2023-03-19T15:45:58.991Z,14.58
2023-03-19T15:48:51.861Z,14.48
2023-03-19T15:51:37.089Z,13.92
2023-03-19T15:54:22.638Z,13.71
2023-03-19T15:57:10.159Z,13.65
2023-03-19T15:59:57.180Z,13.59
2023-03-19T16:02:48.650Z,13.29
2023-03-19T16:05:35.100Z,13.07
2023-03-19T16:08:27.376Z,12.89
2023-03-19T16:11:30.238Z,12.81
2023-03-19T16:14:17.016Z,12.83
2023-03-19T16:17:10.713Z,12.79
2023-03-19T16:20:01.770Z,12.71
2023-03-19T16:22:54.134Z,12.76
2023-03-19T16:25:40.431Z,12.80
2023-03-19T16:28:25.706Z,12.77
2023-03-19T16:31:21.592Z,12.66
2023-03-19T16:34:31.866Z,12.67
2023-03-19T16:38:14.761Z,12.66
2023-03-19T16:41:18.049Z,12.60
2023-03-19T16:44:17.801Z,12.42
2023-03-19T16:47:10.118Z,12.55
2023-03-19T16:49:55.099Z,12.26
2023-03-19T16:52:41.657Z,12.20
2023-03-19T16:55:31.962Z,12.27
2023-03-19T16:58:20.020Z,12.20
2023-03-19T17:01:16.139Z,12.20
2023-03-19T17:04:01.492Z,12.06
2023-03-19T17:06:46.783Z,11.98
2023-03-19T17:09:32.672Z,11.92
2023-03-19T17:12:17.614Z,11.88
2023-03-19T17:15:02.622Z,11.80
2023-03-19T17:17:48.528Z,11.78
2023-03-19T17:20:37.068Z,11.72
2023-03-19T17:23:26.889Z,11.66
2023-03-19T17:26:23.008Z,11.66
2023-03-19T17:29:08.336Z,11.61
2023-03-19T17:31:54.840Z,11.56
2023-03-19T17:34:40.062Z,11.61
2023-03-19T17:37:27.937Z,11.60
2023-03-19T17:40:26.466Z,11.60
2023-03-19T17:43:12.412Z,11.56
2023-03-19T17:45:57.720Z,11.57
2023-03-19T17:48:46.801Z,11.61
2023-03-19T17:51:32.025Z,11.58
2023-03-19T17:54:17.162Z,11.39
2023-03-19T17:57:02.308Z,11.42
2023-03-19T17:59:48.625Z,11.54
2023-03-19T18:02:35.956Z,11.63
2023-03-19T18:05:23.810Z,11.67
2023-03-19T18:08:15.553Z,11.73
2023-03-19T18:11:00.517Z,11.60
2023-03-19T18:13:46.035Z,11.50
2023-03-19T18:16:32.621Z,11.46
2023-03-19T18:19:24.073Z,11.53
2023-03-19T18:22:15.956Z,11.58
2023-03-19T18:25:04.078Z,11.59
2023-03-19T18:27:52.823Z,11.63
2023-03-19T18:30:41.709Z,11.63
2023-03-19T18:33:30.135Z,11.64
2023-03-19T18:36:23.257Z,11.68
2023-03-19T18:39:20.258Z,11.66
2023-03-19T18:42:05.825Z,11.65
2023-03-19T18:44:51.283Z,11.60
2023-03-19T18:47:36.882Z,11.61
2023-03-19T18:50:23.099Z,11.56
2023-03-19T18:53:11.163Z,11.51
2023-03-19T18:55:59.725Z,11.50
2023-03-19T18:58:45.280Z,11.45
2023-03-19T19:01:32.514Z,11.48
2023-03-19T19:04:19.790Z,11.50
2023-03-19T19:07:06.076Z,11.47
2023-03-19T19:09:53.392Z,11.46
2023-03-19T19:12:41.803Z,11.46
2023-03-19T19:15:34.581Z,11.42
2023-03-19T19:18:28.162Z,11.43
2023-03-19T19:21:16.305Z,11.43
2023-03-19T19:24:01.485Z,11.39
2023-03-19T19:26:48.556Z,11.31
2023-03-19T19:29:34.314Z,11.29
2023-03-19T19:32:24.950Z,11.26
2023-03-19T19:35:28.524Z,11.26
2023-03-19T19:38:13.777Z,11.31
2023-03-19T19:41:00.118Z,11.36
2023-03-19T19:43:53.303Z,11.40
2023-03-19T19:46:38.705Z,11.42
2023-03-19T19:49:25.000Z,11.39
2023-03-19T19:52:15.775Z,11.41
2023-03-19T19:55:00.952Z,11.44
2023-03-19T19:57:46.377Z,11.44
2023-03-19T20:00:32.154Z,11.47
2023-03-19T20:03:25.383Z,11.48
2023-03-19T20:06:10.777Z,11.45
2023-03-19T20:08:55.942Z,11.42
2023-03-19T20:11:41.129Z,11.39
2023-03-19T20:14:29.410Z,11.38
2023-03-19T20:17:22.398Z,11.36
2023-03-19T20:20:19.289Z,11.39
2023-03-19T20:23:13.351Z,11.38
2023-03-19T20:25:59.200Z,11.34
2023-03-19T20:28:48.228Z,11.36
2023-03-19T20:31:34.049Z,11.37
2023-03-19T20:34:36.394Z,11.34
2023-03-19T20:37:29.157Z,11.31
2023-03-19T20:40:15.121Z,11.26
2023-03-19T20:43:01.303Z,11.27
2023-03-19T20:45:46.956Z,11.22
2023-03-19T20:48:32.937Z,11.12
2023-03-19T20:51:26.172Z,11.13
2023-03-19T20:54:11.357Z,11.17
2023-03-19T20:56:57.780Z,11.20
2023-03-19T20:59:45.681Z,11.13
2023-03-19T21:02:33.352Z,11.09
2023-03-19T21:05:24.646Z,11.08
2023-03-19T21:08:19.316Z,11.01
2023-03-19T21:11:04.810Z,11.01
2023-03-19T21:13:52.430Z,11.01
2023-03-19T21:16:37.402Z,11.00
2023-03-19T21:19:23.090Z,10.88
2023-03-19T21:22:15.249Z,10.75
2023-03-19T21:25:05.548Z,10.88
2023-03-19T21:27:53.984Z,10.80
2023-03-19T21:30:43.684Z,10.81
2023-03-19T21:33:30.654Z,10.71
2023-03-19T21:36:16.006Z,10.65
2023-03-19T21:39:03.539Z,10.64
2023-03-19T21:41:48.508Z,10.53
2023-03-19T21:44:33.783Z,10.50
2023-03-19T21:47:25.510Z,10.40
2023-03-19T21:50:17.239Z,10.47
2023-03-19T21:53:01.992Z,10.37
2023-03-19T21:55:50.160Z,10.36
2023-03-19T21:58:36.412Z,10.35
2023-03-19T22:01:25.290Z,10.32
2023-03-19T22:04:18.971Z,10.35
2023-03-19T22:07:03.827Z,10.20
2023-03-19T22:09:49.772Z,10.02
2023-03-19T22:12:37.339Z,9.90
2023-03-19T22:15:34.649Z,9.79
2023-03-19T22:18:20.285Z,9.75
2023-03-19T22:21:07.682Z,9.89
2023-03-19T22:23:52.911Z,9.80
2023-03-19T22:26:47.551Z,9.75
2023-03-19T22:29:36.124Z,9.73
2023-03-19T22:32:21.550Z,9.75
2023-03-19T22:35:18.658Z,9.75
2023-03-19T22:38:03.769Z,9.66
2023-03-19T22:40:52.473Z,9.75
2023-03-19T22:43:37.968Z,9.65
2023-03-19T22:46:24.764Z,9.59
2023-03-19T22:49:17.581Z,9.64
2023-03-19T22:52:02.930Z,9.55
2023-03-19T22:54:47.987Z,9.51
2023-03-19T22:57:33.142Z,9.47
2023-03-19T23:00:20.796Z,9.42
2023-03-19T23:03:12.808Z,9.33
2023-03-19T23:06:01.453Z,9.30
2023-03-19T23:08:46.689Z,9.43
2023-03-19T23:11:31.853Z,9.30
2023-03-19T23:14:29.192Z,9.26
2023-03-19T23:17:17.421Z,9.34
2023-03-19T23:20:18.932Z,9.24
2023-03-19T23:23:04.029Z,9.25
2023-03-19T23:25:49.004Z,9.31
2023-03-19T23:28:34.763Z,9.29
2023-03-19T23:31:19.913Z,9.27
2023-03-19T23:34:04.636Z,9.31
2023-03-19T23:36:49.319Z,9.39
2023-03-19T23:39:34.707Z,9.37
2023-03-19T23:42:27.777Z,9.26
2023-03-19T23:45:42.772Z,9.40
2023-03-19T23:48:34.500Z,9.45
2023-03-19T23:51:19.430Z,9.49
2023-03-19T23:54:31.759Z,9.44
2023-03-19T23:57:18.160Z,9.37
